Flight Track Log - Related Links

Times and Time Zones

All times are in EDT time to prevent confusion due to time zone crossing. See the AMX402 flight status page for this flight to view local times or setup timezone preferences in your user account.


Time Position Orientation Groundspeed Altitude Reporting Facility
EDT Latitude Longitude Course Direction KTS MPH feet Rate Location/Type
Wed 08:20:13 AM 20.4300 -104.4790 110° East 486 559 32,100  Level FlightAware ADS-B
Wed 08:20:53 AM 20.3960 -104.3800 110° East 496 571 33,100 1,760 Climbing FlightAware ADS-B
Wed 08:21:28 AM 20.3750 -104.3040 106° East 501 577 34,300 1,976 Climbing FlightAware ADS-B
Wed 08:22:18 AM 20.3870 -104.1810 84° East 505 581 35,900 2,274 Climbing FlightAware ADS-B
Wed 08:23:03 AM 20.4040 -104.0750 80° East 491 565 37,900 2,682 Climbing FlightAware ADS-B
Wed 08:23:43 AM 20.4200 -103.9720 81° East 472 543 39,700 2,188 Climbing FlightAware ADS-B
Wed 08:24:28 AM 20.4350 -103.8720 81° East 462 532 41,000 918 Climbing FlightAware ADS-B
Wed 08:25:08 AM 20.4500 -103.7800 80° East 475 547 41,000  Level FlightAware ADS-B
Wed 08:25:48 AM 20.4650 -103.6860 80° East 480 552 41,000  Level FlightAware ADS-B
Wed 08:26:33 AM 20.4810 -103.5820 81° East 481 554 41,000  Level FlightAware ADS-B
Wed 08:27:08 AM 20.4940 -103.5010 80° East 481 554 41,000  Level FlightAware ADS-B
Wed 08:27:53 AM 20.5090 -103.4030 81° East 482 555 41,000  Level FlightAware ADS-B
Wed 08:28:33 AM 20.5230 -103.3100 81° East 477 549 41,000  Level FlightAware ADS-B
Wed 08:29:18 AM 20.5270 -103.1950 88° East 475 547 41,000  Level FlightAware ADS-B
Wed 08:30:03 AM 20.5320 -103.0910 87° East 475 547 41,000  Level FlightAware ADS-B
Wed 08:30:43 AM 20.5350 -102.9970 88° East 475 547 41,000  Level FlightAware ADS-B
Wed 08:31:23 AM 20.5380 -102.9040 88° East 475 547 41,000  Level FlightAware ADS-B
Wed 08:32:08 AM 20.5420 -102.8040 88° East 474 545 41,000  Level FlightAware ADS-B
Wed 08:32:48 AM 20.5460 -102.7080 87° East 474 545 41,000  Level FlightAware ADS-B
Wed 08:33:33 AM 20.5500 -102.6050 88° East 474 545 41,000  Level FlightAware ADS-B
Wed 08:34:13 AM 20.5530 -102.5140 88° East 474 545 41,000  Level FlightAware ADS-B
Wed 08:34:53 AM 20.5560 -102.4150 88° East 475 547 41,000  Level FlightAware ADS-B
Wed 08:35:38 AM 20.5600 -102.3170 87° East 475 547 41,000  Level FlightAware ADS-B
Wed 08:36:18 AM 20.5630 -102.2160 88° East 475 547 41,000  Level FlightAware ADS-B
Wed 08:37:03 AM 20.5670 -102.1050 88° East 475 547 41,000  Level FlightAware ADS-B
Wed 08:37:43 AM 20.5700 -102.0120 88° East 476 548 41,000  Level FlightAware ADS-B
Wed 08:38:23 AM 20.5720 -101.9170 89° East 476 548 41,000  Level FlightAware ADS-B
Wed 08:39:08 AM 20.5760 -101.8110 88° East 476 548 41,000  Level FlightAware ADS-B
Wed 08:39:48 AM 20.5780 -101.7160 89° East 476 548 41,000  Level FlightAware ADS-B
Wed 08:40:28 AM 20.5810 -101.6210 88° East 476 548 41,000  Level FlightAware ADS-B
Wed 08:41:13 AM 20.5840 -101.5210 88° East 475 547 41,000  Level FlightAware ADS-B
Wed 08:41:53 AM 20.5870 -101.4260 88° East 475 547 41,000  Level FlightAware ADS-B
Wed 08:42:38 AM 20.5900 -101.3200 88° East 474 545 41,000  Level FlightAware ADS-B
Wed 08:43:18 AM 20.5920 -101.2260 89° East 473 544 41,000  Level FlightAware ADS-B
Wed 08:43:58 AM 20.5950 -101.1360 88° East 473 544 41,000  Level FlightAware ADS-B
Wed 08:44:43 AM 20.5930 -101.0280 91° East 467 537 41,000  Level FlightAware ADS-B
Wed 08:45:28 AM 20.5740 -100.9300 102° East 466 536 41,000  Level FlightAware ADS-B
Wed 08:46:08 AM 20.5570 -100.8390 101° East 468 539 41,000  Level FlightAware ADS-B
Wed 08:46:48 AM 20.5400 -100.7480 101° East 469 540 41,000  Level FlightAware ADS-B
Wed 08:47:33 AM 20.5200 -100.6430 101° East 471 542 41,000  Level FlightAware ADS-B
Wed 08:48:13 AM 20.5030 -100.5540 102° East 471 542 41,000  Level FlightAware ADS-B
Wed 08:48:53 AM 20.4860 -100.4640 101° East 472 543 41,000 -212 Level FlightAware ADS-B
Wed 08:49:38 AM 20.4660 -100.3600 102° East 467 537 40,700 -1,553 Descending FlightAware ADS-B
Wed 08:50:18 AM 20.4480 -100.2700 102° East 469 540 38,800 -2,067 Descending FlightAware ADS-B
Wed 08:51:08 AM 20.4280 -100.1630 101° East 472 543 37,600 -3,120 Descending FlightAware ADS-B
Wed 08:51:58 AM 20.4040 -100.0440 102° East 486 559 33,600 -3,867 Descending FlightAware ADS-B
Wed 08:52:38 AM 20.3870 -99.9550 102° East 479 551 31,800 -2,700 Descending FlightAware ADS-B
Wed 08:53:18 AM 20.3640 -99.8630 105° East 464 534 30,000 -2,259 Descending FlightAware ADS-B
Wed 08:54:03 AM 20.3070 -99.7770 125° Southeast 440 506 28,600 -1,200 Descending FlightAware ADS-B
Wed 08:54:38 AM 20.2680 -99.7240 128° Southeast 439 505 28,400 -141 Descending FlightAware ADS-B
Wed 08:55:28 AM 20.2150 -99.6510 128° Southeast 439 505 28,400 -2,067 Level FlightAware ADS-B
Wed 08:56:08 AM 20.1570 -99.5760 129° Southeast 402 463 25,300 -2,933 Descending FlightAware ADS-B
Wed 08:56:58 AM 20.1010 -99.5020 129° Southeast 377 434 24,000 -1,500 Descending FlightAware ADS-B
Wed 08:57:48 AM 20.0460 -99.4290 129° Southeast 366 421 22,800 -1,467 Descending FlightAware ADS-B
Wed 08:58:28 AM 20.0050 -99.3740 128° Southeast 360 414 21,800 -1,389 Descending FlightAware ADS-B
Wed 08:59:23 AM 19.9480 -99.2990 129° Southeast 334 384 20,600 -1,200 Descending FlightAware ADS-B
Wed 08:59:53 AM 19.9260 -99.2580 120° Southeast 317 365 20,100 -462 Descending FlightAware ADS-B
Wed 09:00:28 AM 19.9150 -99.2120 104° East 317 365 20,100 -988 Level FlightAware ADS-B
Wed 09:01:18 AM 19.9120 -99.1380 92° East 271 312 18,700 -1,600 Descending FlightAware ADS-B
Wed 09:01:28 AM 19.9050 -99.1300 133° Southeast 268 308 18,500 -1,200 Descending FlightAware ADS-B
Wed 09:01:43 AM 19.8890 -99.1180 145° Southeast 263 303 18,200 -1,080 Descending FlightAware ADS-B
Wed 09:02:18 AM 19.8540 -99.0970 151° Southeast 257 296 17,600 -450 Descending FlightAware ADS-B
Wed 09:03:03 AM 19.8130 -99.0720 150° Southeast 257 296 17,600  Level FlightAware ADS-B
Wed 09:03:53 AM 19.7690 -99.0450 150° Southeast 257 296 17,600  Level FlightAware ADS-B
Wed 09:04:33 AM 19.7340 -99.0240 151° Southeast 257 296 17,600  Level FlightAware ADS-B
Wed 09:05:13 AM 19.6990 -99.0020 149° Southeast 257 296 17,600 -2,612 Level FlightAware ADS-B
Wed 09:05:58 AM 19.6600 -99.1190 251° West 213 245 13,900 -3,106 Descending FlightAware ADS-B
Wed 09:06:38 AM 19.6310 -99.1500 225° Southwest 211 243 13,200 -847 Descending FlightAware ADS-B
Wed 09:07:23 AM 19.6010 -99.1810 224° Southwest 222 255 12,700 -847 Descending FlightAware ADS-B
Wed 09:08:03 AM 19.5710 -99.2120 224° Southwest 218 251 12,000 -1,091 Descending FlightAware ADS-B
Wed 09:08:18 AM 19.5580 -99.2240 221° Southwest 217 250 11,700 -1,200 Descending FlightAware ADS-B
Wed 09:08:28 AM 19.5490 -99.2260 192° South 217 250 11,500 -982 Descending FlightAware ADS-B
Wed 09:09:13 AM 19.5070 -99.2150 166° South 204 235 10,800 -847 Descending FlightAware ADS-B
Wed 09:09:53 AM 19.4710 -99.2060 167° South 193 222 10,300 -771 Descending FlightAware ADS-B
Wed 09:10:23 AM 19.4460 -99.1990 165° South 183 211 9,900 -800 Descending FlightAware ADS-B
Wed 09:10:53 AM 19.4220 -99.1930 167° South 180 207 9,500 -873 Descending FlightAware ADS-B
Wed 09:11:18 AM 19.4000 -99.1880 168° South 184 212 9,100 -1,050 Descending FlightAware ADS-B
Wed 09:11:33 AM 19.3900 -99.1830 155° Southeast 183 211 8,800 -800 Descending FlightAware ADS-B
Wed 09:11:48 AM 19.3850 -99.1710 114° Southeast 165 190 8,700 -750 Descending FlightAware ADS-B
Wed 09:12:13 AM 19.3900 -99.1520 74° East 156 180 8,300 -873 Descending FlightAware ADS-B
Wed 09:12:43 AM 19.4000 -99.1340 59° Northeast 147 169 7,900 -700 Descending FlightAware ADS-B
Wed 09:13:13 AM 19.4110 -99.1150 58° Northeast 144 166 7,600 -429 Descending FlightAware ADS-B
Wed 09:13:53 AM 19.4240 -99.0920 59° Northeast 144 166 7,400 -300 Descending FlightAware ADS-B
Wed 09:16:00 AM 19.4363 -99.0721 57° Northeast  Level Estimated
Wed 09:17:00 AM 19.4363 -99.0721 43° Northeast  Level Estimated
Wed 09:18:00 AM 19.4363 -99.0721 43° Northeast  Level Estimated
Wed 09:19:00 AM 19.4363 -99.0721 43° Northeast  Level Estimated
Wed 09:20:00 AM 19.4363 -99.0721 43° Northeast  Level Estimated
Wed 09:21:00 AM 19.4363 -99.0721 43° Northeast  Level Estimated
Wed 09:22:00 AM 19.4363 -99.0721 43° Northeast  Level Estimated
Wed 09:23:00 AM 19.4363 -99.0721 43° Northeast  Level Estimated
Wed 09:24:00 AM 19.4363 -99.0721 43° Northeast  Level Estimated
Wed 09:25:00 AM 19.4363 -99.0721 43° Northeast  Level Estimated
Wed 09:26:00 AM 19.4363 -99.0721 43° Northeast  Level Estimated
Wed 09:27:00 AM 19.4363 -99.0721 43° Northeast  Level Estimated
Wed 09:28:00 AM 19.4363 -99.0721 43° Northeast  Level Estimated
Wed 09:29:00 AM 19.4363 -99.0721 43° Northeast  Level Estimated
Wed 09:30:00 AM 19.4363 -99.0721 43° Northeast  Level Estimated

Login

Don't have an account? Register now (free) for customized features, flight alerts, and more!